sensor_id;sensor_type;location;lat;lon;timestamp;noise_LAeq;noise_LA_min;noise_LA_max;noise_LA01;noise_LA95
67320;Laerm;57665;51.436;5.978;2022-09-01T00:00:06;38.72;37.64;39.69;;
67320;Laerm;57665;51.436;5.978;2022-09-01T00:00:17;40.23;37.65;50.68;;
67320;Laerm;57665;51.436;5.978;2022-09-01T00:00:27;39.40;38.31;40.62;;
67320;Laerm;57665;51.436;5.978;2022-09-01T00:00:39;39.40;38.11;40.75;;
67320;Laerm;57665;51.436;5.978;2022-09-01T00:00:53;64.29;38.81;75.53;;
67320;Laerm;57665;51.436;5.978;2022-09-01T00:01:05;68.17;63.85;74.02;;
67320;Laerm;57665;51.436;5.978;2022-09-01T00:01:17;67.01;49.02;71.58;;
67320;Laerm;57665;51.436;5.978;2022-09-01T00:01:30;43.85;39.05;50.53;;
67320;Laerm;57665;51.436;5.978;2022-09-01T00:01:41;39.53;38.30;40.51;;
67320;Laerm;57665;51.436;5.978;2022-09-01T00:01:52;39.12;37.64;40.60;;
67320;Laerm;57665;51.436;5.978;2022-09-01T00:02:02;39.06;37.83;40.15;;
67320;Laerm;57665;51.436;5.978;2022-09-01T00:02:17;38.93;37.61;39.92;;
67320;Laerm;57665;51.436;5.978;2022-09-01T00:02:27;38.91;37.89;40.00;;
67320;Laerm;57665;51.436;5.978;2022-09-01T00:02:38;39.00;37.75;44.10;;
67320;Laerm;57665;51.436;5.978;2022-09-01T00:02:48;38.87;38.00;40.61;;
67320;Laerm;57665;51.436;5.978;2022-09-01T00:02:59;38.89;37.55;41.86;;
67320;Laerm;57665;51.436;5.978;2022-09-01T00:03:09;38.79;37.84;40.03;;
67320;Laerm;57665;51.436;5.978;2022-09-01T00:03:20;38.80;37.98;39.67;;
67320;Laerm;57665;51.436;5.978;2022-09-01T00:03:32;38.61;37.50;40.07;;
67320;Laerm;57665;51.436;5.978;2022-09-01T00:03:43;38.71;37.51;39.75;;
67320;Laerm;57665;51.436;5.978;2022-09-01T00:03:56;38.78;37.47;39.70;;
67320;Laerm;57665;51.436;5.978;2022-09-01T00:04:14;38.81;37.94;39.99;;
67320;Laerm;57665;51.436;5.978;2022-09-01T00:04:25;38.82;37.54;39.88;;
67320;Laerm;57665;51.436;5.978;2022-09-01T00:04:36;38.79;37.83;39.75;;
67320;Laerm;57665;51.436;5.978;2022-09-01T00:04:50;38.83;37.71;39.97;;
67320;Laerm;57665;51.436;5.978;2022-09-01T00:05:06;38.78;37.56;39.87;;
67320;Laerm;57665;51.436;5.978;2022-09-01T00:05:16;38.65;37.70;40.54;;
67320;Laerm;57665;51.436;5.978;2022-09-01T00:05:28;38.73;37.65;39.81;;
67320;Laerm;57665;51.436;5.978;2022-09-01T00:05:38;38.83;37.52;40.24;;
67320;Laerm;57665;51.436;5.978;2022-09-01T00:05:50;38.93;37.76;43.46;;
67320;Laerm;57665;51.436;5.978;2022-09-01T00:06:04;38.82;37.40;39.86;;
67320;Laerm;57665;51.436;5.978;2022-09-01T00:06:19;38.76;37.63;39.73;;
67320;Laerm;57665;51.436;5.978;2022-09-01T00:06:33;38.85;37.49;40.61;;
67320;Laerm;57665;51.436;5.978;2022-09-01T00:06:43;38.83;37.74;40.06;;
67320;Laerm;57665;51.436;5.978;2022-09-01T00:06:55;38.89;37.41;40.11;;
67320;Laerm;57665;51.436;5.978;2022-09-01T00:07:05;38.82;37.43;39.82;;
67320;Laerm;57665;51.436;5.978;2022-09-01T00:07:15;38.94;38.02;40.25;;
67320;Laerm;57665;51.436;5.978;2022-09-01T00:07:26;38.98;38.06;40.09;;
67320;Laerm;57665;51.436;5.978;2022-09-01T00:07:39;38.87;37.78;39.95;;
67320;Laerm;57665;51.436;5.978;2022-09-01T00:07:49;38.77;37.62;39.62;;
67320;Laerm;57665;51.436;5.978;2022-09-01T00:07:59;38.81;37.77;39.96;;
67320;Laerm;57665;51.436;5.978;2022-09-01T00:08:09;38.77;37.86;39.75;;
67320;Laerm;57665;51.436;5.978;2022-09-01T00:08:20;38.83;37.82;39.68;;
67320;Laerm;57665;51.436;5.978;2022-09-01T00:08:30;38.83;37.66;39.80;;
67320;Laerm;57665;51.436;5.978;2022-09-01T00:08:40;38.90;37.81;39.99;;
67320;Laerm;57665;51.436;5.978;2022-09-01T00:08:52;38.82;37.53;39.92;;
67320;Laerm;57665;51.436;5.978;2022-09-01T00:09:04;38.68;37.70;39.95;;
67320;Laerm;57665;51.436;5.978;2022-09-01T00:09:16;38.77;37.79;39.89;;
67320;Laerm;57665;51.436;5.978;2022-09-01T00:09:26;39.03;38.07;40.39;;
67320;Laerm;57665;51.436;5.978;2022-09-01T00:09:37;38.96;37.90;39.76;;
67320;Laerm;57665;51.436;5.978;2022-09-01T00:09:47;38.91;37.86;40.47;;
67320;Laerm;57665;51.436;5.978;2022-09-01T00:09:58;38.73;37.58;39.98;;
67320;Laerm;57665;51.436;5.978;2022-09-01T00:10:08;38.74;37.50;39.75;;
67320;Laerm;57665;51.436;5.978;2022-09-01T00:10:18;39.26;37.54;40.91;;
67320;Laerm;57665;51.436;5.978;2022-09-01T00:10:29;39.32;37.82;40.45;;
67320;Laerm;57665;51.436;5.978;2022-09-01T00:10:39;39.28;37.95;40.39;;
67320;Laerm;57665;51.436;5.978;2022-09-01T00:10:49;39.98;38.26;42.30;;
67320;Laerm;57665;51.436;5.978;2022-09-01T00:11:00;66.69;40.59;78.04;;
67320;Laerm;57665;51.436;5.978;2022-09-01T00:11:10;69.40;66.43;74.36;;
67320;Laerm;57665;51.436;5.978;2022-09-01T00:11:22;66.42;43.91;75.40;;
67320;Laerm;57665;51.436;5.978;2022-09-01T00:11:33;41.23;38.72;45.12;;
67320;Laerm;57665;51.436;5.978;2022-09-01T00:11:44;39.75;38.61;40.84;;
67320;Laerm;57665;51.436;5.978;2022-09-01T00:11:55;39.33;38.11;42.57;;
67320;Laerm;57665;51.436;5.978;2022-09-01T00:12:07;38.99;37.77;42.55;;
67320;Laerm;57665;51.436;5.978;2022-09-01T00:12:17;39.03;37.96;40.17;;
67320;Laerm;57665;51.436;5.978;2022-09-01T00:12:28;39.12;37.98;40.40;;
67320;Laerm;57665;51.436;5.978;2022-09-01T00:12:38;39.39;38.13;40.28;;
67320;Laerm;57665;51.436;5.978;2022-09-01T00:12:49;38.88;37.94;40.03;;
67320;Laerm;57665;51.436;5.978;2022-09-01T00:12:59;38.79;37.84;39.75;;
67320;Laerm;57665;51.436;5.978;2022-09-01T00:13:09;38.79;37.70;39.97;;
67320;Laerm;57665;51.436;5.978;2022-09-01T00:13:20;38.84;37.66;44.18;;
67320;Laerm;57665;51.436;5.978;2022-09-01T00:13:30;38.71;37.39;39.63;;
67320;Laerm;57665;51.436;5.978;2022-09-01T00:13:43;38.81;37.48;40.03;;
67320;Laerm;57665;51.436;5.978;2022-09-01T00:13:54;38.85;37.65;39.97;;
67320;Laerm;57665;51.436;5.978;2022-09-01T00:14:05;38.81;37.94;40.07;;
67320;Laerm;57665;51.436;5.978;2022-09-01T00:14:17;39.04;37.64;47.29;;
67320;Laerm;57665;51.436;5.978;2022-09-01T00:14:29;38.69;37.51;39.60;;
67320;Laerm;57665;51.436;5.978;2022-09-01T00:14:40;38.63;37.47;39.86;;
67320;Laerm;57665;51.436;5.978;2022-09-01T00:14:50;38.67;37.55;39.77;;
67320;Laerm;57665;51.436;5.978;2022-09-01T00:15:01;38.79;37.72;40.09;;
67320;Laerm;57665;51.436;5.978;2022-09-01T00:15:12;38.78;37.77;39.91;;
67320;Laerm;57665;51.436;5.978;2022-09-01T00:15:22;38.74;37.62;39.93;;
67320;Laerm;57665;51.436;5.978;2022-09-01T00:15:33;38.98;37.86;40.34;;
67320;Laerm;57665;51.436;5.978;2022-09-01T00:15:44;38.72;37.66;39.68;;
67320;Laerm;57665;51.436;5.978;2022-09-01T00:15:54;38.70;37.47;39.97;;
67320;Laerm;57665;51.436;5.978;2022-09-01T00:16:04;38.77;37.76;39.77;;
67320;Laerm;57665;51.436;5.978;2022-09-01T00:16:15;38.83;37.91;39.85;;
67320;Laerm;57665;51.436;5.978;2022-09-01T00:16:27;39.01;37.64;44.08;;
67320;Laerm;57665;51.436;5.978;2022-09-01T00:16:38;38.98;37.86;41.86;;
67320;Laerm;57665;51.436;5.978;2022-09-01T00:16:48;38.72;37.53;39.81;;
67320;Laerm;57665;51.436;5.978;2022-09-01T00:16:59;38.63;37.55;39.89;;
67320;Laerm;57665;51.436;5.978;2022-09-01T00:17:10;38.69;37.54;39.91;;
67320;Laerm;57665;51.436;5.978;2022-09-01T00:17:20;38.72;37.82;39.87;;
67320;Laerm;57665;51.436;5.978;2022-09-01T00:17:31;38.70;37.69;39.69;;
67320;Laerm;57665;51.436;5.978;2022-09-01T00:17:42;38.72;37.61;39.86;;
67320;Laerm;57665;51.436;5.978;2022-09-01T00:17:53;38.75;37.37;39.74;;
67320;Laerm;57665;51.436;5.978;2022-09-01T00:18:03;38.69;37.54;39.79;;
67320;Laerm;57665;51.436;5.978;2022-09-01T00:18:13;38.82;37.80;39.76;;
67320;Laerm;57665;51.436;5.978;2022-09-01T00:18:24;38.79;37.77;39.81;;
67320;Laerm;57665;51.436;5.978;2022-09-01T00:18:34;38.77;37.74;39.87;;
67320;Laerm;57665;51.436;5.978;2022-09-01T00:18:46;38.80;37.79;39.75;;
67320;Laerm;57665;51.436;5.978;2022-09-01T00:18:58;38.79;37.71;39.98;;
67320;Laerm;57665;51.436;5.978;2022-09-01T00:19:08;38.81;37.87;39.94;;
67320;Laerm;57665;51.436;5.978;2022-09-01T00:19:19;38.76;37.68;39.85;;
67320;Laerm;57665;51.436;5.978;2022-09-01T00:19:30;38.73;37.70;39.83;;
67320;Laerm;57665;51.436;5.978;2022-09-01T00:19:42;38.88;37.54;40.00;;
67320;Laerm;57665;51.436;5.978;2022-09-01T00:19:53;38.88;37.74;40.04;;
67320;Laerm;57665;51.436;5.978;2022-09-01T00:20:04;38.92;37.91;41.37;;
67320;Laerm;57665;51.436;5.978;2022-09-01T00:20:14;38.81;37.77;39.70;;
67320;Laerm;57665;51.436;5.978;2022-09-01T00:20:24;38.75;37.41;40.25;;
67320;Laerm;57665;51.436;5.978;2022-09-01T00:20:35;39.80;38.33;41.33;;
67320;Laerm;57665;51.436;5.978;2022-09-01T00:20:45;39.76;37.99;41.82;;
67320;Laerm;57665;51.436;5.978;2022-09-01T00:20:55;39.14;38.08;40.60;;
67320;Laerm;57665;51.436;5.978;2022-09-01T00:21:08;62.00;38.59;73.22;;
67320;Laerm;57665;51.436;5.978;2022-09-01T00:21:21;67.36;63.37;71.30;;
67320;Laerm;57665;51.436;5.978;2022-09-01T00:21:33;67.30;62.45;73.08;;
67320;Laerm;57665;51.436;5.978;2022-09-01T00:21:44;55.77;39.72;70.32;;
67320;Laerm;57665;51.436;5.978;2022-09-01T00:21:55;40.26;38.73;42.26;;
67320;Laerm;57665;51.436;5.978;2022-09-01T00:22:05;39.35;38.30;40.65;;
67320;Laerm;57665;51.436;5.978;2022-09-01T00:22:16;39.06;37.71;40.16;;
67320;Laerm;57665;51.436;5.978;2022-09-01T00:22:26;39.27;37.92;40.57;;
67320;Laerm;57665;51.436;5.978;2022-09-01T00:22:38;38.94;37.48;39.91;;
67320;Laerm;57665;51.436;5.978;2022-09-01T00:22:48;38.80;37.35;39.81;;
67320;Laerm;57665;51.436;5.978;2022-09-01T00:22:59;39.03;37.84;39.87;;
67320;Laerm;57665;51.436;5.978;2022-09-01T00:23:09;38.98;37.77;40.23;;
67320;Laerm;57665;51.436;5.978;2022-09-01T00:23:19;38.91;37.94;39.73;;
67320;Laerm;57665;51.436;5.978;2022-09-01T00:23:30;38.91;37.56;40.11;;
67320;Laerm;57665;51.436;5.978;2022-09-01T00:23:40;38.92;37.90;40.03;;
67320;Laerm;57665;51.436;5.978;2022-09-01T00:23:50;38.80;37.77;39.77;;
67320;Laerm;57665;51.436;5.978;2022-09-01T00:24:01;38.78;37.82;39.69;;
67320;Laerm;57665;51.436;5.978;2022-09-01T00:24:13;38.85;37.75;39.85;;
67320;Laerm;57665;51.436;5.978;2022-09-01T00:24:23;38.92;37.71;40.32;;
67320;Laerm;57665;51.436;5.978;2022-09-01T00:24:35;38.88;37.87;39.86;;
67320;Laerm;57665;51.436;5.978;2022-09-01T00:24:45;38.87;37.71;40.26;;
67320;Laerm;57665;51.436;5.978;2022-09-01T00:24:55;38.94;37.75;40.05;;
67320;Laerm;57665;51.436;5.978;2022-09-01T00:25:06;38.88;37.93;39.85;;
67320;Laerm;57665;51.436;5.978;2022-09-01T00:25:17;38.74;37.52;39.76;;
67320;Laerm;57665;51.436;5.978;2022-09-01T00:25:28;38.73;37.88;39.90;;
67320;Laerm;57665;51.436;5.978;2022-09-01T00:25:39;38.91;37.28;39.93;;
67320;Laerm;57665;51.436;5.978;2022-09-01T00:25:49;38.87;37.52;41.32;;
67320;Laerm;57665;51.436;5.978;2022-09-01T00:25:59;38.85;37.52;39.94;;
67320;Laerm;57665;51.436;5.978;2022-09-01T00:26:10;38.75;37.68;40.01;;
67320;Laerm;57665;51.436;5.978;2022-09-01T00:26:20;38.66;37.75;39.78;;
67320;Laerm;57665;51.436;5.978;2022-09-01T00:26:30;38.75;37.85;39.59;;
67320;Laerm;57665;51.436;5.978;2022-09-01T00:26:41;38.75;37.73;39.77;;
67320;Laerm;57665;51.436;5.978;2022-09-01T00:26:51;38.82;37.62;39.65;;
67320;Laerm;57665;51.436;5.978;2022-09-01T00:27:02;38.83;37.96;39.80;;
67320;Laerm;57665;51.436;5.978;2022-09-01T00:27:12;38.85;37.80;40.16;;
67320;Laerm;57665;51.436;5.978;2022-09-01T00:27:22;38.87;37.84;39.77;;
67320;Laerm;57665;51.436;5.978;2022-09-01T00:27:33;38.82;37.66;39.88;;
67320;Laerm;57665;51.436;5.978;2022-09-01T00:27:43;38.76;37.62;39.71;;
67320;Laerm;57665;51.436;5.978;2022-09-01T00:27:53;38.84;37.85;39.84;;
67320;Laerm;57665;51.436;5.978;2022-09-01T00:28:08;38.77;37.90;39.89;;
67320;Laerm;57665;51.436;5.978;2022-09-01T00:28:18;38.84;37.69;39.94;;
67320;Laerm;57665;51.436;5.978;2022-09-01T00:28:28;38.98;38.06;40.08;;
67320;Laerm;57665;51.436;5.978;2022-09-01T00:28:39;38.85;37.80;40.14;;
67320;Laerm;57665;51.436;5.978;2022-09-01T00:28:49;38.81;37.85;39.66;;
67320;Laerm;57665;51.436;5.978;2022-09-01T00:29:00;38.85;37.65;40.08;;
67320;Laerm;57665;51.436;5.978;2022-09-01T00:29:10;38.87;37.96;39.74;;
67320;Laerm;57665;51.436;5.978;2022-09-01T00:29:22;38.78;37.76;39.71;;
67320;Laerm;57665;51.436;5.978;2022-09-01T00:29:32;38.85;37.82;39.98;;
67320;Laerm;57665;51.436;5.978;2022-09-01T00:29:42;38.79;37.60;39.73;;
67320;Laerm;57665;51.436;5.978;2022-09-01T00:29:53;38.84;37.89;39.81;;
67320;Laerm;57665;51.436;5.978;2022-09-01T00:30:03;38.88;37.69;40.46;;
67320;Laerm;57665;51.436;5.978;2022-09-01T00:30:13;38.85;37.81;39.73;;
67320;Laerm;57665;51.436;5.978;2022-09-01T00:30:24;38.84;37.75;39.91;;
67320;Laerm;57665;51.436;5.978;2022-09-01T00:30:34;38.86;37.77;39.86;;
67320;Laerm;57665;51.436;5.978;2022-09-01T00:30:45;39.43;38.11;40.97;;
67320;Laerm;57665;51.436;5.978;2022-09-01T00:30:55;39.44;38.23;40.91;;
67320;Laerm;57665;51.436;5.978;2022-09-01T00:31:07;39.82;38.41;41.37;;
67320;Laerm;57665;51.436;5.978;2022-09-01T00:31:18;47.38;38.99;57.52;;
67320;Laerm;57665;51.436;5.978;2022-09-01T00:31:29;70.00;56.96;76.18;;
67320;Laerm;57665;51.436;5.978;2022-09-01T00:31:39;69.15;65.19;74.12;;
67320;Laerm;57665;51.436;5.978;2022-09-01T00:31:50;65.31;45.20;72.64;;
67320;Laerm;57665;51.436;5.978;2022-09-01T00:32:00;41.34;39.10;44.54;;
67320;Laerm;57665;51.436;5.978;2022-09-01T00:32:10;40.67;38.71;48.04;;
67320;Laerm;57665;51.436;5.978;2022-09-01T00:32:21;39.53;38.14;40.61;;
67320;Laerm;57665;51.436;5.978;2022-09-01T00:32:31;39.36;38.26;42.58;;
67320;Laerm;57665;51.436;5.978;2022-09-01T00:32:41;39.13;38.06;40.15;;
67320;Laerm;57665;51.436;5.978;2022-09-01T00:32:55;39.83;38.34;41.32;;
67320;Laerm;57665;51.436;5.978;2022-09-01T00:33:05;39.99;38.75;41.71;;
67320;Laerm;57665;51.436;5.978;2022-09-01T00:33:17;39.90;38.63;41.06;;
67320;Laerm;57665;51.436;5.978;2022-09-01T00:33:27;40.10;38.64;41.49;;
67320;Laerm;57665;51.436;5.978;2022-09-01T00:33:37;43.10;39.56;51.69;;
67320;Laerm;57665;51.436;5.978;2022-09-01T00:33:48;73.99;51.03;79.87;;
67320;Laerm;57665;51.436;5.978;2022-09-01T00:33:58;72.86;69.26;78.26;;
67320;Laerm;57665;51.436;5.978;2022-09-01T00:34:09;69.89;46.98;76.41;;
67320;Laerm;57665;51.436;5.978;2022-09-01T00:34:20;43.04;39.41;50.02;;
67320;Laerm;57665;51.436;5.978;2022-09-01T00:34:30;39.48;38.40;41.23;;
67320;Laerm;57665;51.436;5.978;2022-09-01T00:34:40;39.06;37.96;40.08;;
67320;Laerm;57665;51.436;5.978;2022-09-01T00:34:51;38.88;37.79;39.94;;
67320;Laerm;57665;51.436;5.978;2022-09-01T00:35:01;38.88;37.73;39.75;;
67320;Laerm;57665;51.436;5.978;2022-09-01T00:35:12;38.97;37.74;40.20;;
67320;Laerm;57665;51.436;5.978;2022-09-01T00:35:23;38.87;37.72;40.75;;
67320;Laerm;57665;51.436;5.978;2022-09-01T00:35:33;38.81;37.05;40.15;;
67320;Laerm;57665;51.436;5.978;2022-09-01T00:35:44;38.94;37.47;39.97;;
67320;Laerm;57665;51.436;5.978;2022-09-01T00:35:54;38.97;37.80;39.96;;
67320;Laerm;57665;51.436;5.978;2022-09-01T00:36:04;38.87;37.59;39.82;;
67320;Laerm;57665;51.436;5.978;2022-09-01T00:36:15;39.01;37.91;40.12;;
67320;Laerm;57665;51.436;5.978;2022-09-01T00:36:26;38.94;37.57;40.15;;
67320;Laerm;57665;51.436;5.978;2022-09-01T00:36:36;38.89;37.78;39.87;;
67320;Laerm;57665;51.436;5.978;2022-09-01T00:36:47;38.81;37.94;39.94;;
67320;Laerm;57665;51.436;5.978;2022-09-01T00:36:57;38.97;37.57;40.22;;
67320;Laerm;57665;51.436;5.978;2022-09-01T00:37:07;39.07;38.05;40.20;;
67320;Laerm;57665;51.436;5.978;2022-09-01T00:37:18;39.48;38.08;42.47;;
67320;Laerm;57665;51.436;5.978;2022-09-01T00:37:28;39.11;38.03;40.50;;
67320;Laerm;57665;51.436;5.978;2022-09-01T00:37:38;38.97;37.83;39.99;;
67320;Laerm;57665;51.436;5.978;2022-09-01T00:37:48;38.83;37.66;39.82;;
67320;Laerm;57665;51.436;5.978;2022-09-01T00:37:58;39.52;38.13;41.36;;
67320;Laerm;57665;51.436;5.978;2022-09-01T00:38:09;39.61;38.31;41.32;;
67320;Laerm;57665;51.436;5.978;2022-09-01T00:38:19;39.22;38.31;40.42;;
67320;Laerm;57665;51.436;5.978;2022-09-01T00:38:29;44.35;39.01;51.42;;
67320;Laerm;57665;51.436;5.978;2022-09-01T00:38:40;69.80;50.58;78.72;;
67320;Laerm;57665;51.436;5.978;2022-09-01T00:38:50;68.03;64.78;71.88;;
67320;Laerm;57665;51.436;5.978;2022-09-01T00:39:01;63.21;42.45;70.40;;
67320;Laerm;57665;51.436;5.978;2022-09-01T00:39:11;40.38;38.78;42.32;;
67320;Laerm;57665;51.436;5.978;2022-09-01T00:39:22;39.50;37.96;40.65;;
67320;Laerm;57665;51.436;5.978;2022-09-01T00:39:32;39.52;38.03;41.06;;
67320;Laerm;57665;51.436;5.978;2022-09-01T00:39:42;39.31;38.12;40.58;;
67320;Laerm;57665;51.436;5.978;2022-09-01T00:39:53;39.31;38.29;44.91;;
67320;Laerm;57665;51.436;5.978;2022-09-01T00:40:03;39.17;38.01;40.17;;
67320;Laerm;57665;51.436;5.978;2022-09-01T00:40:14;39.16;38.00;40.33;;
67320;Laerm;57665;51.436;5.978;2022-09-01T00:40:25;38.97;37.84;40.03;;
67320;Laerm;57665;51.436;5.978;2022-09-01T00:40:36;38.97;37.85;39.94;;
67320;Laerm;57665;51.436;5.978;2022-09-01T00:40:46;38.98;37.77;40.12;;
67320;Laerm;57665;51.436;5.978;2022-09-01T00:40:56;38.86;37.51;39.75;;
67320;Laerm;57665;51.436;5.978;2022-09-01T00:41:07;38.80;37.62;39.94;;
67320;Laerm;57665;51.436;5.978;2022-09-01T00:41:18;38.79;37.64;39.70;;
67320;Laerm;57665;51.436;5.978;2022-09-01T00:41:30;38.95;37.83;39.97;;
67320;Laerm;57665;51.436;5.978;2022-09-01T00:41:41;38.82;37.39;40.12;;
67320;Laerm;57665;51.436;5.978;2022-09-01T00:41:53;38.78;37.83;40.00;;
67320;Laerm;57665;51.436;5.978;2022-09-01T00:42:04;38.75;37.78;39.93;;
67320;Laerm;57665;51.436;5.978;2022-09-01T00:42:14;38.80;37.81;39.82;;
67320;Laerm;57665;51.436;5.978;2022-09-01T00:42:25;38.86;37.62;39.84;;
67320;Laerm;57665;51.436;5.978;2022-09-01T00:42:35;38.81;37.82;39.79;;
67320;Laerm;57665;51.436;5.978;2022-09-01T00:42:45;38.77;37.74;39.83;;
67320;Laerm;57665;51.436;5.978;2022-09-01T00:42:57;38.77;37.42;39.87;;
67320;Laerm;57665;51.436;5.978;2022-09-01T00:43:10;38.75;37.78;39.75;;
67320;Laerm;57665;51.436;5.978;2022-09-01T00:43:21;38.83;37.68;40.08;;
67320;Laerm;57665;51.436;5.978;2022-09-01T00:43:39;38.85;37.77;39.95;;
67320;Laerm;57665;51.436;5.978;2022-09-01T00:43:51;38.85;37.71;40.38;;
67320;Laerm;57665;51.436;5.978;2022-09-01T00:44:03;38.80;37.78;39.83;;
67320;Laerm;57665;51.436;5.978;2022-09-01T00:44:18;38.77;37.70;39.86;;
67320;Laerm;57665;51.436;5.978;2022-09-01T00:44:32;38.83;37.35;40.02;;
67320;Laerm;57665;51.436;5.978;2022-09-01T00:44:43;38.78;37.43;39.74;;
67320;Laerm;57665;51.436;5.978;2022-09-01T00:44:53;38.78;37.75;39.85;;
67320;Laerm;57665;51.436;5.978;2022-09-01T00:45:03;38.72;37.72;39.95;;
67320;Laerm;57665;51.436;5.978;2022-09-01T00:45:14;38.71;37.50;39.87;;
67320;Laerm;57665;51.436;5.978;2022-09-01T00:45:24;39.44;38.02;40.71;;
67320;Laerm;57665;51.436;5.978;2022-09-01T00:45:34;39.07;37.83;40.19;;
67320;Laerm;57665;51.436;5.978;2022-09-01T00:45:45;39.28;37.75;40.88;;
67320;Laerm;57665;51.436;5.978;2022-09-01T00:45:55;43.46;38.06;51.20;;
67320;Laerm;57665;51.436;5.978;2022-09-01T00:46:07;66.82;49.79;73.67;;
67320;Laerm;57665;51.436;5.978;2022-09-01T00:46:21;68.57;63.69;73.38;;
67320;Laerm;57665;51.436;5.978;2022-09-01T00:46:33;50.69;39.18;63.48;;
67320;Laerm;57665;51.436;5.978;2022-09-01T00:46:45;39.72;38.51;41.68;;
67320;Laerm;57665;51.436;5.978;2022-09-01T00:46:56;39.29;37.94;40.44;;
67320;Laerm;57665;51.436;5.978;2022-09-01T00:47:06;39.17;37.75;40.40;;
67320;Laerm;57665;51.436;5.978;2022-09-01T00:47:17;39.06;37.96;40.23;;
67320;Laerm;57665;51.436;5.978;2022-09-01T00:47:28;39.05;37.90;39.98;;
67320;Laerm;57665;51.436;5.978;2022-09-01T00:47:38;39.00;37.98;39.85;;
67320;Laerm;57665;51.436;5.978;2022-09-01T00:47:48;39.09;37.72;40.08;;
67320;Laerm;57665;51.436;5.978;2022-09-01T00:47:58;39.02;37.89;40.37;;
67320;Laerm;57665;51.436;5.978;2022-09-01T00:48:08;39.00;37.73;40.27;;
67320;Laerm;57665;51.436;5.978;2022-09-01T00:48:19;39.01;38.13;39.99;;
67320;Laerm;57665;51.436;5.978;2022-09-01T00:48:30;39.01;37.93;40.04;;
67320;Laerm;57665;51.436;5.978;2022-09-01T00:48:41;38.88;37.83;40.14;;
67320;Laerm;57665;51.436;5.978;2022-09-01T00:48:55;38.80;37.45;39.79;;
67320;Laerm;57665;51.436;5.978;2022-09-01T00:49:40;38.94;37.79;39.91;;
67320;Laerm;57665;51.436;5.978;2022-09-01T00:49:51;38.82;37.77;39.95;;
67320;Laerm;57665;51.436;5.978;2022-09-01T00:50:03;38.76;37.54;39.78;;
67320;Laerm;57665;51.436;5.978;2022-09-01T00:50:15;38.74;37.68;39.93;;
67320;Laerm;57665;51.436;5.978;2022-09-01T00:50:26;38.76;37.86;39.77;;
67320;Laerm;57665;51.436;5.978;2022-09-01T00:50:37;38.88;37.61;39.89;;
67320;Laerm;57665;51.436;5.978;2022-09-01T00:50:47;38.87;37.60;39.87;;
67320;Laerm;57665;51.436;5.978;2022-09-01T00:50:58;38.93;37.71;39.97;;
67320;Laerm;57665;51.436;5.978;2022-09-01T00:51:10;39.01;37.98;40.06;;
67320;Laerm;57665;51.436;5.978;2022-09-01T00:51:21;38.97;37.79;40.44;;
67320;Laerm;57665;51.436;5.978;2022-09-01T00:51:32;38.91;37.67;39.84;;
67320;Laerm;57665;51.436;5.978;2022-09-01T00:51:46;38.93;37.81;40.31;;
67320;Laerm;57665;51.436;5.978;2022-09-01T00:52:01;38.87;37.70;39.73;;
67320;Laerm;57665;51.436;5.978;2022-09-01T00:52:35;38.92;37.73;40.16;;
67320;Laerm;57665;51.436;5.978;2022-09-01T00:52:45;38.92;37.65;40.01;;
67320;Laerm;57665;51.436;5.978;2022-09-01T00:52:56;38.94;37.89;39.92;;
67320;Laerm;57665;51.436;5.978;2022-09-01T00:53:07;38.91;37.94;39.83;;
67320;Laerm;57665;51.436;5.978;2022-09-01T00:53:17;38.89;37.80;39.91;;
67320;Laerm;57665;51.436;5.978;2022-09-01T00:53:28;38.80;37.57;39.83;;
67320;Laerm;57665;51.436;5.978;2022-09-01T00:53:38;38.85;37.70;40.01;;
67320;Laerm;57665;51.436;5.978;2022-09-01T00:53:50;38.86;37.76;39.82;;
67320;Laerm;57665;51.436;5.978;2022-09-01T00:54:01;38.88;37.72;39.99;;
67320;Laerm;57665;51.436;5.978;2022-09-01T00:54:13;38.84;37.60;39.76;;
67320;Laerm;57665;51.436;5.978;2022-09-01T00:54:25;38.86;37.74;39.91;;
67320;Laerm;57665;51.436;5.978;2022-09-01T00:54:38;38.83;37.32;39.77;;
67320;Laerm;57665;51.436;5.978;2022-09-01T00:54:51;38.85;37.42;40.11;;
67320;Laerm;57665;51.436;5.978;2022-09-01T00:55:06;38.77;37.66;39.97;;
67320;Laerm;57665;51.436;5.978;2022-09-01T00:55:20;38.85;37.70;39.92;;
67320;Laerm;57665;51.436;5.978;2022-09-01T00:55:32;38.80;37.62;39.85;;
67320;Laerm;57665;51.436;5.978;2022-09-01T00:55:43;38.91;37.70;39.99;;
67320;Laerm;57665;51.436;5.978;2022-09-01T00:55:53;38.92;37.85;39.84;;
67320;Laerm;57665;51.436;5.978;2022-09-01T00:56:03;38.94;37.81;40.15;;
67320;Laerm;57665;51.436;5.978;2022-09-01T00:56:14;38.89;37.82;39.92;;
67320;Laerm;57665;51.436;5.978;2022-09-01T00:56:24;38.83;37.83;40.12;;
67320;Laerm;57665;51.436;5.978;2022-09-01T00:56:35;38.97;37.69;39.93;;
67320;Laerm;57665;51.436;5.978;2022-09-01T00:56:48;38.92;37.72;40.17;;
67320;Laerm;57665;51.436;5.978;2022-09-01T00:56:59;38.80;37.55;39.80;;
67320;Laerm;57665;51.436;5.978;2022-09-01T00:57:09;38.88;37.66;39.87;;
67320;Laerm;57665;51.436;5.978;2022-09-01T00:57:21;38.94;37.74;40.14;;
67320;Laerm;57665;51.436;5.978;2022-09-01T00:57:31;38.94;37.72;39.97;;
67320;Laerm;57665;51.436;5.978;2022-09-01T00:57:42;38.90;37.77;40.11;;
67320;Laerm;57665;51.436;5.978;2022-09-01T00:57:52;38.92;37.62;40.03;;
67320;Laerm;57665;51.436;5.978;2022-09-01T00:58:03;38.87;37.71;39.90;;
67320;Laerm;57665;51.436;5.978;2022-09-01T00:58:15;38.96;37.71;40.10;;
67320;Laerm;57665;51.436;5.978;2022-09-01T00:58:25;38.95;37.92;39.73;;
67320;Laerm;57665;51.436;5.978;2022-09-01T00:58:36;38.97;37.97;39.90;;
67320;Laerm;57665;51.436;5.978;2022-09-01T00:58:46;38.99;38.01;40.26;;
67320;Laerm;57665;51.436;5.978;2022-09-01T00:58:57;39.05;38.01;40.24;;
67320;Laerm;57665;51.436;5.978;2022-09-01T00:59:08;38.97;37.93;40.07;;
67320;Laerm;57665;51.436;5.978;2022-09-01T00:59:21;38.90;37.84;39.99;;
67320;Laerm;57665;51.436;5.978;2022-09-01T00:59:32;38.93;37.74;40.00;;
67320;Laerm;57665;51.436;5.978;2022-09-01T00:59:46;38.86;37.69;39.91;;
67320;Laerm;57665;51.436;5.978;2022-09-01T01:00:05;38.93;37.41;39.92;;
67320;Laerm;57665;51.436;5.978;2022-09-01T01:00:20;41.12;37.65;48.92;;
67320;Laerm;57665;51.436;5.978;2022-09-01T01:00:31;39.04;37.76;40.23;;
67320;Laerm;57665;51.436;5.978;2022-09-01T01:00:42;39.20;37.78;40.28;;
67320;Laerm;57665;51.436;5.978;2022-09-01T01:00:55;39.77;38.28;41.23;;
67320;Laerm;57665;51.436;5.978;2022-09-01T01:01:06;39.88;38.51;41.51;;
67320;Laerm;57665;51.436;5.978;2022-09-01T01:01:17;39.73;38.20;40.96;;
67320;Laerm;57665;51.436;5.978;2022-09-01T01:01:27;40.48;38.51;43.46;;
67320;Laerm;57665;51.436;5.978;2022-09-01T01:01:37;70.83;42.51;76.90;;
67320;Laerm;57665;51.436;5.978;2022-09-01T01:01:48;74.51;68.69;79.82;;
67320;Laerm;57665;51.436;5.978;2022-09-01T01:01:58;73.80;59.24;81.12;;
67320;Laerm;57665;51.436;5.978;2022-09-01T01:02:08;71.44;67.88;75.75;;
67320;Laerm;57665;51.436;5.978;2022-09-01T01:02:20;66.65;44.79;73.65;;
67320;Laerm;57665;51.436;5.978;2022-09-01T01:02:31;41.42;39.44;45.73;;
67320;Laerm;57665;51.436;5.978;2022-09-01T01:02:41;40.40;38.47;41.86;;
67320;Laerm;57665;51.436;5.978;2022-09-01T01:02:53;40.02;38.59;41.52;;